createdAt,value
2022-08-08T00:02:03.354Z,22.48
2022-08-08T00:04:30.689Z,22.51
2022-08-08T00:07:17.325Z,22.58
2022-08-08T00:09:48.015Z,22.56
2022-08-08T00:12:36.917Z,22.52
2022-08-08T00:15:57.645Z,22.51
2022-08-08T00:18:28.742Z,22.44
2022-08-08T00:20:58.823Z,22.33
2022-08-08T00:23:51.839Z,22.26
2022-08-08T00:26:31.792Z,22.23
2022-08-08T00:29:11.583Z,22.24
2022-08-08T00:32:28.362Z,22.21
2022-08-08T00:35:04.637Z,22.23
2022-08-08T00:37:47.975Z,22.21
2022-08-08T00:41:07.807Z,22.16
2022-08-08T00:44:00.911Z,22.08
2022-08-08T00:46:57.622Z,21.99
2022-08-08T00:49:50.473Z,21.97
2022-08-08T00:52:56.022Z,21.87
2022-08-08T00:55:36.347Z,21.81
2022-08-08T00:58:35.898Z,21.82
2022-08-08T01:01:15.845Z,21.76
2022-08-08T01:04:22.257Z,21.72
2022-08-08T01:07:11.072Z,21.71
2022-08-08T01:09:58.827Z,21.73
2022-08-08T01:13:01.631Z,21.70
2022-08-08T01:15:44.489Z,21.69
2022-08-08T01:18:25.458Z,21.69
2022-08-08T01:22:05.736Z,21.70
2022-08-08T01:24:54.355Z,21.70
2022-08-08T01:27:43.475Z,21.64
2022-08-08T01:30:45.834Z,21.62
2022-08-08T01:33:54.149Z,21.60
2022-08-08T01:37:02.020Z,21.64
2022-08-08T01:40:02.617Z,21.63
2022-08-08T01:42:50.121Z,21.61
2022-08-08T01:45:22.716Z,21.58
2022-08-08T01:48:31.263Z,21.59
2022-08-08T01:52:04.777Z,21.57
2022-08-08T01:55:45.428Z,21.61
2022-08-08T01:58:04.561Z,21.61
2022-08-08T02:00:57.620Z,21.58
2022-08-08T02:04:00.850Z,21.54
2022-08-08T02:06:57.462Z,21.50
2022-08-08T02:10:01.868Z,21.47
2022-08-08T02:12:53.500Z,21.46
2022-08-08T02:15:53.040Z,21.43
2022-08-08T02:18:43.551Z,21.40
2022-08-08T02:21:37.135Z,21.39
2022-08-08T02:24:24.998Z,21.36
2022-08-08T02:27:17.366Z,21.31
2022-08-08T02:30:04.465Z,21.29
2022-08-08T02:32:55.269Z,21.30
2022-08-08T02:35:35.669Z,21.30
2022-08-08T02:38:34.618Z,21.36
2022-08-08T02:41:59.405Z,21.32
2022-08-08T02:44:38.612Z,21.29
2022-08-08T02:47:27.133Z,21.16
2022-08-08T02:50:27.987Z,21.02
2022-08-08T02:53:22.416Z,20.93
2022-08-08T02:56:17.802Z,20.89
2022-08-08T02:59:26.027Z,20.86
2022-08-08T03:02:37.964Z,20.89
2022-08-08T03:05:22.681Z,20.92
2022-08-08T03:08:29.435Z,21.07
2022-08-08T03:11:37.724Z,21.02
2022-08-08T03:16:03.866Z,20.98
2022-08-08T03:18:04.484Z,20.97
2022-08-08T03:20:53.495Z,21.03
2022-08-08T03:23:54.815Z,21.00
2022-08-08T03:26:30.795Z,21.01
2022-08-08T03:29:18.649Z,20.99
2022-08-08T03:32:09.459Z,21.05
2022-08-08T03:34:42.092Z,21.12
2022-08-08T03:37:58.842Z,21.04
2022-08-08T03:40:29.929Z,21.11
2022-08-08T03:42:58.694Z,21.15
2022-08-08T03:46:05.005Z,21.22
2022-08-08T03:49:09.527Z,21.27
2022-08-08T03:51:40.424Z,21.32
2022-08-08T03:54:41.113Z,21.40
2022-08-08T03:58:09.599Z,21.46
2022-08-08T04:00:08.069Z,21.52
2022-08-08T04:02:57.507Z,21.58
2022-08-08T04:05:29.208Z,21.60
2022-08-08T04:08:07.202Z,21.64
2022-08-08T04:10:38.240Z,21.66
2022-08-08T04:13:18.218Z,21.67
2022-08-08T04:15:55.223Z,21.64
2022-08-08T04:18:42.217Z,21.62
2022-08-08T04:21:20.038Z,21.57
2022-08-08T04:24:05.480Z,21.60
2022-08-08T04:26:57.572Z,21.61
2022-08-08T04:29:36.799Z,21.59
2022-08-08T04:32:10.478Z,21.49
2022-08-08T04:34:49.392Z,21.46
2022-08-08T04:37:32.461Z,21.49
2022-08-08T04:40:10.613Z,21.59
2022-08-08T04:42:57.031Z,21.61
2022-08-08T04:45:29.898Z,21.67
2022-08-08T04:48:01.595Z,21.77
2022-08-08T04:50:38.657Z,21.88
2022-08-08T04:54:36.023Z,21.99
2022-08-08T04:56:02.735Z,22.16
2022-08-08T04:58:34.536Z,22.24
2022-08-08T05:01:10.729Z,22.33
2022-08-08T05:04:10.824Z,22.40
2022-08-08T05:06:39.303Z,22.61
2022-08-08T05:09:09.542Z,22.75
2022-08-08T05:11:41.919Z,22.79
2022-08-08T05:14:20.584Z,22.84
2022-08-08T05:17:01.138Z,22.85
2022-08-08T05:20:09.656Z,22.79
2022-08-08T05:22:29.771Z,22.72
2022-08-08T05:25:00.437Z,22.82
2022-08-08T05:27:33.216Z,22.88
2022-08-08T05:30:03.690Z,23.04
2022-08-08T05:32:46.837Z,23.28
2022-08-08T05:35:23.402Z,23.52
2022-08-08T05:38:00.781Z,23.80
2022-08-08T05:40:57.847Z,24.04
2022-08-08T05:44:02.263Z,24.25
2022-08-08T05:46:24.514Z,24.46
2022-08-08T05:48:55.058Z,24.56
2022-08-08T05:51:37.490Z,24.68
2022-08-08T05:54:29.018Z,24.73
2022-08-08T05:57:20.902Z,24.77
2022-08-08T06:00:24.747Z,24.84
2022-08-08T06:03:17.268Z,24.90
2022-08-08T06:05:56.628Z,24.99
2022-08-08T06:08:35.784Z,24.89
2022-08-08T06:11:10.381Z,24.86
2022-08-08T06:13:47.334Z,24.84
2022-08-08T06:16:18.951Z,24.87
2022-08-08T06:18:55.416Z,24.97
2022-08-08T06:21:48.670Z,25.06
2022-08-08T06:24:23.299Z,25.20
2022-08-08T06:27:10.045Z,25.37
2022-08-08T06:30:00.407Z,25.52
2022-08-08T06:33:00.993Z,25.54
2022-08-08T06:36:07.312Z,25.70
2022-08-08T06:38:28.753Z,25.78
2022-08-08T06:41:04.896Z,25.73
2022-08-08T06:43:40.617Z,25.70
2022-08-08T06:46:23.896Z,25.86
2022-08-08T06:48:55.632Z,25.97
2022-08-08T06:51:25.197Z,26.19
2022-08-08T06:54:05.176Z,26.27
2022-08-08T06:56:36.955Z,26.51
2022-08-08T06:59:12.042Z,26.55
2022-08-08T07:02:27.351Z,26.92
2022-08-08T07:04:56.315Z,27.03
2022-08-08T07:07:49.946Z,27.20
2022-08-08T07:10:21.252Z,27.21
2022-08-08T07:13:05.124Z,27.43
2022-08-08T07:16:04.649Z,27.38
2022-08-08T07:19:02.944Z,27.47
2022-08-08T07:21:45.814Z,27.80
2022-08-08T07:24:50.964Z,27.92
2022-08-08T07:27:35.401Z,28.37
2022-08-08T07:30:19.721Z,28.79
2022-08-08T07:32:59.362Z,28.93
2022-08-08T07:35:31.022Z,29.10
2022-08-08T07:38:09.765Z,29.31
2022-08-08T07:40:59.289Z,29.40
2022-08-08T07:43:36.940Z,29.30
2022-08-08T07:46:23.791Z,29.35
2022-08-08T07:49:00.983Z,29.35
2022-08-08T07:51:44.973Z,29.40
2022-08-08T07:54:34.674Z,29.41
2022-08-08T07:57:27.708Z,29.22
2022-08-08T08:00:16.378Z,29.45
2022-08-08T08:03:45.572Z,29.26
2022-08-08T08:06:21.574Z,29.20
2022-08-08T08:09:23.999Z,29.34
2022-08-08T08:11:56.969Z,29.12
2022-08-08T08:14:58.294Z,29.19
2022-08-08T08:17:44.158Z,29.39
2022-08-08T08:20:20.696Z,29.34
2022-08-08T08:22:50.025Z,29.49
2022-08-08T08:25:40.766Z,29.48
2022-08-08T08:28:09.415Z,29.52
2022-08-08T08:30:39.389Z,29.52
2022-08-08T08:33:10.920Z,29.61
2022-08-08T08:36:19.423Z,29.94
2022-08-08T08:38:29.745Z,30.15
2022-08-08T08:41:13.219Z,30.25
2022-08-08T08:43:49.767Z,30.02
2022-08-08T08:46:19.378Z,30.12
2022-08-08T08:48:55.079Z,30.08
2022-08-08T08:51:29.536Z,30.18
2022-08-08T08:54:03.139Z,29.94
2022-08-08T08:56:37.886Z,29.88
2022-08-08T08:59:15.318Z,29.73
2022-08-08T09:01:53.527Z,29.59
2022-08-08T09:04:39.606Z,29.49
2022-08-08T09:07:23.189Z,29.67
2022-08-08T09:09:58.224Z,29.71
2022-08-08T09:12:35.766Z,29.85
2022-08-08T09:15:06.038Z,30.22
2022-08-08T09:17:41.987Z,30.47
2022-08-08T09:21:59.579Z,30.67
2022-08-08T09:23:25.527Z,31.14
2022-08-08T09:26:05.723Z,31.24
2022-08-08T09:28:40.345Z,31.94
2022-08-08T09:31:56.176Z,32.32
2022-08-08T09:34:34.994Z,32.28
2022-08-08T09:37:57.520Z,32.38
2022-08-08T09:40:10.501Z,32.51
2022-08-08T09:42:51.458Z,33.10
2022-08-08T09:46:00.984Z,32.97
2022-08-08T09:48:36.321Z,33.07
2022-08-08T09:51:08.880Z,32.92
2022-08-08T09:53:59.959Z,32.72
2022-08-08T09:56:45.480Z,31.94
2022-08-08T10:00:02.529Z,31.49
2022-08-08T10:02:25.004Z,31.00
2022-08-08T10:05:15.161Z,30.77
2022-08-08T10:07:52.199Z,30.74
2022-08-08T10:10:38.756Z,30.62
2022-08-08T10:13:32.358Z,30.74
2022-08-08T10:16:04.256Z,30.57
2022-08-08T10:18:36.187Z,30.84
2022-08-08T10:21:22.740Z,30.98
2022-08-08T10:23:58.909Z,31.02
2022-08-08T10:26:57.310Z,31.18
2022-08-08T10:29:58.985Z,31.45
2022-08-08T10:32:35.193Z,31.33
2022-08-08T10:35:20.358Z,31.79
2022-08-08T10:38:08.344Z,31.70
2022-08-08T10:40:38.910Z,31.73
2022-08-08T10:43:09.679Z,31.85
2022-08-08T10:45:55.557Z,32.12
2022-08-08T10:48:57.072Z,31.99
2022-08-08T10:51:34.637Z,32.01
2022-08-08T10:54:10.410Z,32.39
2022-08-08T10:56:43.316Z,32.83
2022-08-08T10:59:14.058Z,33.41
2022-08-08T11:01:54.548Z,33.52
2022-08-08T11:04:38.626Z,33.25
2022-08-08T11:07:39.125Z,33.22
2022-08-08T11:10:04.224Z,33.63
2022-08-08T11:12:38.404Z,34.09
2022-08-08T11:15:07.200Z,34.35
2022-08-08T11:17:59.876Z,34.38
2022-08-08T11:20:28.201Z,34.24
2022-08-08T11:22:59.019Z,34.14
2022-08-08T11:25:53.256Z,33.85
2022-08-08T11:28:25.059Z,33.71
2022-08-08T11:30:57.955Z,33.83
2022-08-08T11:33:51.363Z,33.73
2022-08-08T11:36:17.535Z,32.91
2022-08-08T11:38:53.709Z,32.69
2022-08-08T11:41:24.387Z,32.76
2022-08-08T11:43:57.785Z,33.08
2022-08-08T11:46:30.401Z,33.19
2022-08-08T11:49:04.945Z,33.64
2022-08-08T11:51:39.737Z,33.96
2022-08-08T11:54:27.112Z,34.12
2022-08-08T11:57:14.630Z,33.79
2022-08-08T12:00:05.946Z,33.81
2022-08-08T12:02:51.040Z,33.50
2022-08-08T12:05:30.794Z,33.35
2022-08-08T12:08:02.669Z,33.38
2022-08-08T12:10:33.603Z,33.21
2022-08-08T12:13:03.416Z,33.40
2022-08-08T12:15:41.743Z,33.35
2022-08-08T12:18:24.319Z,33.17
2022-08-08T12:20:59.541Z,33.04
2022-08-08T12:23:43.636Z,32.62
2022-08-08T12:26:35.181Z,32.79
2022-08-08T12:29:39.952Z,32.45
2022-08-08T12:32:20.269Z,32.60
2022-08-08T12:35:00.879Z,32.34
2022-08-08T12:37:41.694Z,32.21
2022-08-08T12:40:23.545Z,32.16
2022-08-08T12:42:53.438Z,32.06
2022-08-08T12:45:59.517Z,32.08
2022-08-08T12:48:36.684Z,32.10
2022-08-08T12:51:18.844Z,32.07
2022-08-08T12:54:01.351Z,32.13
2022-08-08T12:56:38.144Z,32.16
2022-08-08T12:59:27.414Z,31.83
2022-08-08T13:02:08.032Z,31.66
2022-08-08T13:04:37.585Z,31.89
2022-08-08T13:07:16.980Z,32.28
2022-08-08T13:10:04.526Z,32.56
2022-08-08T13:12:48.524Z,32.52
2022-08-08T13:15:19.446Z,32.51
2022-08-08T13:18:08.046Z,32.41
2022-08-08T13:20:45.440Z,32.66
2022-08-08T13:23:30.740Z,32.65
2022-08-08T13:26:03.980Z,32.96
2022-08-08T13:28:42.273Z,32.93
2022-08-08T13:31:16.597Z,32.96
2022-08-08T13:33:50.210Z,32.69
2022-08-08T13:36:26.172Z,32.43
2022-08-08T13:39:00.299Z,32.56
2022-08-08T13:41:39.323Z,32.56
2022-08-08T13:44:14.432Z,32.04
2022-08-08T13:47:02.803Z,31.96
2022-08-08T13:50:35.642Z,32.10
2022-08-08T13:52:36.029Z,32.26
2022-08-08T13:55:07.568Z,32.03
2022-08-08T13:58:06.699Z,32.23
2022-08-08T14:00:24.731Z,32.05
2022-08-08T14:03:00.612Z,32.07
2022-08-08T14:05:36.189Z,32.21
2022-08-08T14:08:29.905Z,32.46
2022-08-08T14:11:02.841Z,32.63
2022-08-08T14:13:33.776Z,32.65
2022-08-08T14:16:16.160Z,32.52
2022-08-08T14:19:00.605Z,32.64
2022-08-08T14:21:52.348Z,32.93
2022-08-08T14:24:34.744Z,33.31
2022-08-08T14:27:07.725Z,33.26
2022-08-08T14:29:39.488Z,33.16
2022-08-08T14:32:16.068Z,33.03
2022-08-08T14:35:01.203Z,32.87
2022-08-08T14:37:59.931Z,32.53
2022-08-08T14:40:29.942Z,32.34
2022-08-08T14:43:01.546Z,32.31
2022-08-08T14:46:03.130Z,32.28
2022-08-08T14:49:20.111Z,32.04
2022-08-08T14:51:53.585Z,31.89
2022-08-08T14:54:28.547Z,31.88
2022-08-08T14:57:04.021Z,31.71
2022-08-08T14:59:50.814Z,31.58
2022-08-08T15:02:30.680Z,31.43
2022-08-08T15:05:08.188Z,31.12
2022-08-08T15:07:41.743Z,31.06
2022-08-08T15:10:14.715Z,31.06
2022-08-08T15:12:43.685Z,31.16
2022-08-08T15:15:18.730Z,31.12
2022-08-08T15:18:02.847Z,30.98
2022-08-08T15:20:31.152Z,30.97
2022-08-08T15:22:59.499Z,30.91
2022-08-08T15:25:33.117Z,30.76
2022-08-08T15:28:04.345Z,30.66
2022-08-08T15:30:50.896Z,30.49
2022-08-08T15:33:35.079Z,30.53
2022-08-08T15:36:07.751Z,30.66
2022-08-08T15:38:40.547Z,30.79
2022-08-08T15:41:17.840Z,30.81
2022-08-08T15:44:00.570Z,30.82
2022-08-08T15:46:34.795Z,30.86
2022-08-08T15:49:04.391Z,30.87
2022-08-08T15:51:33.568Z,30.75
2022-08-08T15:54:04.168Z,30.68
2022-08-08T15:56:32.557Z,30.56
2022-08-08T15:59:01.782Z,30.38
2022-08-08T16:01:40.963Z,30.25
2022-08-08T16:04:18.899Z,30.31
2022-08-08T16:06:50.745Z,30.40
2022-08-08T16:13:04.076Z,30.41
2022-08-08T16:13:09.906Z,30.45
2022-08-08T16:14:55.961Z,30.28
2022-08-08T16:17:58.146Z,30.24
2022-08-08T16:20:14.760Z,30.27
2022-08-08T16:22:50.117Z,30.13
2022-08-08T16:25:20.579Z,29.99
2022-08-08T16:27:56.864Z,29.87
2022-08-08T16:30:32.587Z,29.85
2022-08-08T16:33:04.774Z,30.04
2022-08-08T16:35:34.523Z,30.07
2022-08-08T16:38:03.828Z,30.08
2022-08-08T16:40:32.500Z,29.91
2022-08-08T16:43:00.793Z,29.98
2022-08-08T16:46:38.899Z,29.98
2022-08-08T16:48:18.449Z,29.92
2022-08-08T16:50:47.872Z,29.84
2022-08-08T16:55:04.277Z,29.81
2022-08-08T16:56:14.389Z,29.97
2022-08-08T16:58:43.785Z,29.97
2022-08-08T17:01:15.881Z,29.99
2022-08-08T17:04:01.173Z,29.93
2022-08-08T17:06:37.563Z,29.88
2022-08-08T17:09:15.909Z,30.00
2022-08-08T17:11:55.504Z,29.87
2022-08-08T17:14:34.108Z,29.88
2022-08-08T17:17:04.464Z,29.88
2022-08-08T17:19:40.856Z,29.87
2022-08-08T17:22:12.431Z,29.81
2022-08-08T17:24:40.890Z,29.90
2022-08-08T17:27:10.465Z,30.00
2022-08-08T17:29:43.395Z,30.00
2022-08-08T17:32:15.309Z,29.99
2022-08-08T17:35:27.635Z,29.95
2022-08-08T17:37:35.809Z,29.89
2022-08-08T17:40:13.052Z,29.83
2022-08-08T17:42:47.036Z,29.78
2022-08-08T17:45:22.965Z,29.73
2022-08-08T17:47:53.894Z,29.66
2022-08-08T17:50:23.670Z,29.59
2022-08-08T17:52:53.701Z,29.47
2022-08-08T17:56:05.736Z,29.38
2022-08-08T17:58:11.836Z,29.23
2022-08-08T18:00:41.553Z,29.11
2022-08-08T18:03:13.115Z,29.02
2022-08-08T18:05:44.118Z,28.92
2022-08-08T18:08:36.857Z,28.82
2022-08-08T18:11:16.891Z,28.73
2022-08-08T18:13:47.430Z,28.66
2022-08-08T18:16:16.927Z,28.60
2022-08-08T18:18:53.659Z,28.50
2022-08-08T18:21:59.983Z,28.38
2022-08-08T18:24:19.123Z,28.36
2022-08-08T18:26:54.325Z,28.21
2022-08-08T18:29:33.523Z,28.20
2022-08-08T18:32:07.940Z,28.11
2022-08-08T18:34:39.420Z,27.94
2022-08-08T18:37:09.557Z,27.83
2022-08-08T18:39:42.202Z,27.75
2022-08-08T18:42:16.487Z,27.69
2022-08-08T18:44:55.987Z,27.62
2022-08-08T18:47:27.209Z,27.58
2022-08-08T18:49:59.960Z,27.49
2022-08-08T18:52:32.884Z,27.43
2022-08-08T18:55:10.826Z,27.39
2022-08-08T18:57:44.822Z,27.37
2022-08-08T19:00:21.286Z,27.21
2022-08-08T19:03:03.977Z,27.12
2022-08-08T19:05:45.471Z,27.04
2022-08-08T19:08:29.339Z,26.96
2022-08-08T19:11:01.199Z,26.91
2022-08-08T19:13:38.388Z,26.89
2022-08-08T19:16:20.655Z,26.83
2022-08-08T19:19:01.887Z,26.76
2022-08-08T19:21:33.505Z,26.69
2022-08-08T19:24:38.790Z,26.60
2022-08-08T19:27:04.827Z,26.55
2022-08-08T19:29:35.650Z,26.48
2022-08-08T19:32:12.974Z,26.41
2022-08-08T19:34:49.398Z,26.36
2022-08-08T19:37:27.852Z,26.31
2022-08-08T19:40:14.679Z,26.25
2022-08-08T19:42:47.207Z,26.22
2022-08-08T19:45:59.739Z,26.26
2022-08-08T19:48:29.469Z,26.21
2022-08-08T19:50:55.677Z,26.11
2022-08-08T19:53:52.030Z,26.06
2022-08-08T19:56:13.058Z,25.99
2022-08-08T19:58:41.863Z,25.92
2022-08-08T20:01:17.292Z,25.86
2022-08-08T20:04:02.376Z,25.79
2022-08-08T20:06:31.641Z,25.74
2022-08-08T20:08:59.965Z,25.72
2022-08-08T20:11:32.743Z,25.70
2022-08-08T20:14:33.406Z,25.77
2022-08-08T20:16:54.954Z,25.84
2022-08-08T20:19:24.150Z,25.86
2022-08-08T20:21:52.858Z,25.94
2022-08-08T20:24:21.163Z,25.91
2022-08-08T20:26:50.712Z,25.89
2022-08-08T20:29:20.341Z,25.90
2022-08-08T20:32:10.236Z,25.85
2022-08-08T20:34:39.357Z,25.83
2022-08-08T20:37:16.212Z,25.79
2022-08-08T20:39:51.852Z,25.75
2022-08-08T20:42:28.716Z,25.68
2022-08-08T20:44:58.657Z,25.62
2022-08-08T20:47:28.849Z,25.59
2022-08-08T20:50:05.837Z,25.54
2022-08-08T20:52:34.079Z,25.52
2022-08-08T20:55:16.259Z,25.49
2022-08-08T20:57:51.214Z,25.46
2022-08-08T21:00:20.357Z,25.45
2022-08-08T21:02:52.767Z,25.44
2022-08-08T21:05:21.620Z,25.43
2022-08-08T21:08:37.189Z,25.48
2022-08-08T21:10:41.089Z,25.62
2022-08-08T21:13:09.324Z,25.71
2022-08-08T21:16:05.339Z,25.74
2022-08-08T21:18:28.010Z,25.75
2022-08-08T21:20:56.881Z,25.74
2022-08-08T21:24:01.806Z,25.84
2022-08-08T21:26:13.537Z,26.05
2022-08-08T21:29:00.465Z,26.21
2022-08-08T21:31:58.261Z,26.27
2022-08-08T21:34:19.045Z,26.38
2022-08-08T21:36:53.019Z,26.54
2022-08-08T21:39:41.558Z,26.59
2022-08-08T21:42:13.644Z,26.73
2022-08-08T21:44:58.005Z,26.75
2022-08-08T21:48:00.394Z,26.68
2022-08-08T21:50:15.784Z,26.70
2022-08-08T21:54:33.712Z,26.71
2022-08-08T21:56:25.995Z,26.70
2022-08-08T21:58:21.672Z,26.63
2022-08-08T22:01:04.283Z,26.66
2022-08-08T22:03:32.755Z,26.78
2022-08-08T22:06:02.556Z,26.95
2022-08-08T22:08:37.210Z,26.90
2022-08-08T22:11:51.491Z,26.98
2022-08-08T22:13:58.612Z,26.99
2022-08-08T22:16:28.315Z,27.01
2022-08-08T22:18:56.806Z,26.99
2022-08-08T22:21:25.179Z,26.95
2022-08-08T22:24:02.637Z,26.91
2022-08-08T22:26:32.242Z,26.87
2022-08-08T22:29:12.842Z,26.88
2022-08-08T22:31:58.562Z,26.83
2022-08-08T22:34:39.133Z,26.74
2022-08-08T22:37:27.743Z,26.78
2022-08-08T22:40:00.889Z,26.70
2022-08-08T22:42:31.731Z,26.58
2022-08-08T22:45:05.349Z,26.49
2022-08-08T22:47:47.255Z,26.45
2022-08-08T22:50:26.178Z,26.45
2022-08-08T22:54:27.753Z,26.52
2022-08-08T22:55:58.329Z,26.50
2022-08-08T22:58:33.957Z,26.49
2022-08-08T23:01:26.861Z,26.44
2022-08-08T23:03:55.583Z,26.40
2022-08-08T23:06:26.118Z,26.31
2022-08-08T23:09:00.418Z,26.36
2022-08-08T23:12:29.103Z,26.38
2022-08-08T23:14:21.123Z,26.39
2022-08-08T23:16:57.684Z,26.39
2022-08-08T23:19:32.197Z,26.36
2022-08-08T23:22:05.283Z,26.41
2022-08-08T23:24:41.153Z,26.39
2022-08-08T23:27:17.291Z,26.38
2022-08-08T23:30:00.530Z,26.38
2022-08-08T23:32:28.718Z,26.32
2022-08-08T23:34:59.006Z,26.28
2022-08-08T23:38:01.450Z,26.31
2022-08-08T23:40:22.234Z,26.27
2022-08-08T23:42:51.352Z,26.22
2022-08-08T23:49:01.957Z,26.27
2022-08-08T23:49:07.547Z,26.33
2022-08-08T23:50:57.441Z,26.25
2022-08-08T23:53:55.914Z,26.16
2022-08-08T23:56:32.029Z,26.14
2022-08-08T23:59:02.298Z,26.19
